createdAt,value
2023-01-10T00:00:45.729Z,25.50
2023-01-10T00:03:19.555Z,25.50
2023-01-10T00:05:52.651Z,25.50
2023-01-10T00:08:25.934Z,25.50
2023-01-10T00:11:19.195Z,25.50
2023-01-10T00:13:55.187Z,25.50
2023-01-10T00:16:28.673Z,25.50
2023-01-10T00:19:02.001Z,25.40
2023-01-10T00:21:35.351Z,25.50
2023-01-10T00:24:17.379Z,25.40
2023-01-10T00:26:52.794Z,25.40
2023-01-10T00:29:31.289Z,25.40
2023-01-10T00:32:04.673Z,25.50
2023-01-10T00:34:37.975Z,25.50
2023-01-10T00:37:11.251Z,25.40
2023-01-10T00:39:44.563Z,25.40
2023-01-10T00:42:35.451Z,25.40
2023-01-10T00:45:11.882Z,25.50
2023-01-10T00:47:45.184Z,25.50
2023-01-10T00:50:18.801Z,25.50
2023-01-10T00:52:52.044Z,25.50
2023-01-10T00:55:25.385Z,25.50
2023-01-10T00:57:58.791Z,25.50
2023-01-10T01:00:33.503Z,25.50
2023-01-10T01:03:08.056Z,25.50
2023-01-10T01:05:42.584Z,25.50
2023-01-10T01:08:17.849Z,25.50
2023-01-10T01:10:51.843Z,25.50
2023-01-10T01:13:25.655Z,25.50
2023-01-10T01:16:00.499Z,25.50
2023-01-10T01:18:34.155Z,25.40
2023-01-10T01:21:08.454Z,25.50
2023-01-10T01:23:42.309Z,25.40
2023-01-10T01:26:15.433Z,25.50
2023-01-10T01:28:48.723Z,25.40
2023-01-10T01:31:23.486Z,25.40
2023-01-10T01:33:57.129Z,25.40
2023-01-10T01:36:30.441Z,25.40
2023-01-10T01:39:03.997Z,25.40
2023-01-10T01:41:54.892Z,25.40
2023-01-10T01:44:32.781Z,25.40
2023-01-10T01:47:09.713Z,25.40
2023-01-10T01:49:45.435Z,25.40
2023-01-10T01:52:24.240Z,25.40
2023-01-10T01:55:00.297Z,25.40
2023-01-10T01:57:34.736Z,25.40
2023-01-10T02:00:10.689Z,25.40
2023-01-10T02:03:02.274Z,25.50
2023-01-10T02:05:40.215Z,25.50
2023-01-10T02:08:14.895Z,25.50
2023-01-10T02:10:53.634Z,25.40
2023-01-10T02:13:28.543Z,25.40
2023-01-10T02:16:01.964Z,25.40
2023-01-10T02:18:36.981Z,25.40
2023-01-10T02:21:32.406Z,25.40
2023-01-10T02:24:28.665Z,25.40
2023-01-10T02:27:27.620Z,25.40
2023-01-10T02:30:28.500Z,25.40
2023-01-10T02:33:10.975Z,25.40
2023-01-10T02:35:56.845Z,25.40
2023-01-10T02:38:43.014Z,25.40
2023-01-10T02:41:26.027Z,25.40
2023-01-10T02:44:04.197Z,25.40
2023-01-10T02:46:40.761Z,25.40
2023-01-10T02:49:15.496Z,25.40
2023-01-10T02:51:48.786Z,25.40
2023-01-10T02:54:26.419Z,25.40
2023-01-10T02:57:20.836Z,25.40
2023-01-10T03:00:24.603Z,25.40
2023-01-10T03:03:19.774Z,25.40
2023-01-10T03:06:06.316Z,25.40
2023-01-10T03:08:44.654Z,25.40
2023-01-10T03:11:38.035Z,25.40
2023-01-10T03:14:17.639Z,25.40
2023-01-10T03:16:55.201Z,25.40
2023-01-10T03:19:33.773Z,25.40
2023-01-10T03:22:10.804Z,25.40
2023-01-10T03:24:47.624Z,25.40
2023-01-10T03:27:26.137Z,25.40
2023-01-10T03:30:07.612Z,25.40
2023-01-10T03:32:41.552Z,25.40
2023-01-10T03:35:16.168Z,25.40
2023-01-10T03:37:58.615Z,25.40
2023-01-10T03:40:38.076Z,25.40
2023-01-10T03:43:34.873Z,25.40
2023-01-10T03:46:13.127Z,25.40
2023-01-10T03:48:48.111Z,25.30
2023-01-10T03:51:21.954Z,25.40
2023-01-10T03:53:56.436Z,25.40
2023-01-10T03:56:29.588Z,25.30
2023-01-10T03:59:02.873Z,25.30
2023-01-10T04:01:36.580Z,25.30
2023-01-10T04:04:09.983Z,25.30
2023-01-10T04:06:43.333Z,25.30
2023-01-10T04:09:18.125Z,25.30
2023-01-10T04:11:51.408Z,25.30
2023-01-10T04:14:24.689Z,25.30
2023-01-10T04:16:58.143Z,25.30
2023-01-10T04:19:31.601Z,25.30
2023-01-10T04:22:05.750Z,25.30
2023-01-10T04:24:40.528Z,25.30
2023-01-10T04:27:13.827Z,25.30
2023-01-10T04:29:47.232Z,25.30
2023-01-10T04:32:20.562Z,25.40
2023-01-10T04:34:54.174Z,25.30
2023-01-10T04:37:27.765Z,25.30
2023-01-10T04:40:02.481Z,25.30
2023-01-10T04:42:35.812Z,25.30
2023-01-10T04:45:11.800Z,25.30
2023-01-10T04:47:45.091Z,25.40
2023-01-10T04:50:18.554Z,25.30
2023-01-10T04:52:51.867Z,25.40
2023-01-10T04:55:26.580Z,25.30
2023-01-10T04:58:00.573Z,25.30
2023-01-10T05:00:33.850Z,25.30
2023-01-10T05:03:07.302Z,25.30
2023-01-10T05:05:40.682Z,25.30
2023-01-10T05:08:13.958Z,25.30
2023-01-10T05:10:48.673Z,25.30
2023-01-10T05:13:22.033Z,25.30
2023-01-10T05:15:56.194Z,25.40
2023-01-10T05:18:30.643Z,25.30
2023-01-10T05:21:05.979Z,25.30
2023-01-10T05:23:40.486Z,25.30
2023-01-10T05:26:17.263Z,25.30
2023-01-10T05:28:50.803Z,25.30
2023-01-10T05:31:24.156Z,25.30
2023-01-10T05:33:57.502Z,25.30
2023-01-10T05:36:30.797Z,25.30
2023-01-10T05:39:04.647Z,25.30
2023-01-10T05:41:39.095Z,25.30
2023-01-10T05:44:14.114Z,25.30
2023-01-10T05:46:48.112Z,25.30
2023-01-10T05:49:21.406Z,25.30
2023-01-10T05:51:54.981Z,25.30
2023-01-10T05:54:29.737Z,25.30
2023-01-10T05:57:04.456Z,25.30
2023-01-10T05:59:37.822Z,25.30
2023-01-10T06:02:11.219Z,25.30
2023-01-10T06:04:44.672Z,25.30
2023-01-10T06:07:17.921Z,25.30
2023-01-10T06:09:51.915Z,25.30
2023-01-10T06:12:26.680Z,25.30
2023-01-10T06:15:00.046Z,25.30
2023-01-10T06:17:33.349Z,25.30
2023-01-10T06:20:07.698Z,25.30
2023-01-10T06:22:42.703Z,25.30
2023-01-10T06:25:16.445Z,25.40
2023-01-10T06:27:51.136Z,25.30
2023-01-10T06:30:24.600Z,25.30
2023-01-10T06:33:03.127Z,25.30
2023-01-10T06:35:37.229Z,25.40
2023-01-10T06:38:10.526Z,25.40
2023-01-10T06:40:43.877Z,25.30
2023-01-10T06:43:18.689Z,25.30
2023-01-10T06:45:52.018Z,25.40
2023-01-10T06:48:25.329Z,25.30
2023-01-10T06:50:58.645Z,25.40
2023-01-10T06:53:32.110Z,25.30
2023-01-10T06:56:06.475Z,25.30
2023-01-10T06:58:41.469Z,25.30
2023-01-10T07:01:16.615Z,25.30
2023-01-10T07:03:50.265Z,25.30
2023-01-10T07:06:23.631Z,25.40
2023-01-10T07:08:57.129Z,25.40
2023-01-10T07:11:30.476Z,25.30
2023-01-10T07:14:05.426Z,25.30
2023-01-10T07:16:38.754Z,25.30
2023-01-10T07:19:13.486Z,25.30
2023-01-10T07:21:46.796Z,25.30
2023-01-10T07:24:20.283Z,25.30
2023-01-10T07:26:56.046Z,25.40
2023-01-10T07:29:30.757Z,25.40
2023-01-10T07:32:04.280Z,25.40
2023-01-10T07:34:37.639Z,25.40
2023-01-10T07:37:10.943Z,25.40
2023-01-10T07:39:44.284Z,25.40
2023-01-10T07:42:17.584Z,25.40
2023-01-10T07:44:52.326Z,25.40
2023-01-10T07:47:25.623Z,25.40
2023-01-10T07:49:58.947Z,25.40
2023-01-10T07:52:33.631Z,25.40
2023-01-10T07:55:07.847Z,25.40
2023-01-10T07:57:41.189Z,25.40
2023-01-10T08:00:18.916Z,25.40
2023-01-10T08:02:54.869Z,25.40
2023-01-10T08:05:28.388Z,25.40
2023-01-10T08:08:05.699Z,25.30
2023-01-10T08:10:40.838Z,25.20
2023-01-10T08:13:18.852Z,25.10
2023-01-10T08:15:53.921Z,25.10
2023-01-10T08:18:28.552Z,25.10
2023-01-10T08:21:02.225Z,25.00
2023-01-10T08:23:35.572Z,25.00
2023-01-10T08:26:08.984Z,25.00
2023-01-10T08:28:42.314Z,25.00
2023-01-10T08:31:17.252Z,25.00
2023-01-10T08:33:50.711Z,25.00
2023-01-10T08:36:24.318Z,25.00
2023-01-10T08:38:57.661Z,25.00
2023-01-10T08:41:31.403Z,25.00
2023-01-10T08:44:04.514Z,25.00
2023-01-10T08:46:39.469Z,25.00
2023-01-10T08:49:12.983Z,25.00
2023-01-10T08:51:46.283Z,25.00
2023-01-10T08:54:19.573Z,25.10
2023-01-10T08:56:52.903Z,25.00
2023-01-10T08:59:26.371Z,25.10
2023-01-10T09:02:01.692Z,25.10
2023-01-10T09:04:35.080Z,25.10
2023-01-10T09:07:08.477Z,25.10
2023-01-10T09:09:41.815Z,25.10
2023-01-10T09:12:32.973Z,25.10
2023-01-10T09:15:07.799Z,25.10
2023-01-10T09:17:42.630Z,25.10
2023-01-10T09:20:16.122Z,25.10
2023-01-10T09:22:49.493Z,25.10
2023-01-10T09:25:23.224Z,25.10
2023-01-10T09:27:59.951Z,25.10
2023-01-10T09:30:33.915Z,25.10
2023-01-10T09:33:08.767Z,25.10
2023-01-10T09:35:43.122Z,25.20
2023-01-10T09:38:18.937Z,25.10
2023-01-10T09:41:01.960Z,25.20
2023-01-10T09:43:47.643Z,25.10
2023-01-10T09:46:29.238Z,25.10
2023-01-10T09:49:13.859Z,25.10
2023-01-10T09:51:50.625Z,25.10
2023-01-10T09:54:29.288Z,25.10
2023-01-10T09:57:03.384Z,25.20
2023-01-10T09:59:39.469Z,25.20
2023-01-10T10:02:25.314Z,25.20
2023-01-10T10:05:10.445Z,25.10
2023-01-10T10:07:43.970Z,25.20
2023-01-10T10:10:22.750Z,25.20
2023-01-10T10:13:02.682Z,25.20
2023-01-10T10:15:42.877Z,25.20
2023-01-10T10:18:27.356Z,25.20
2023-01-10T10:21:07.900Z,25.20
2023-01-10T10:23:53.432Z,25.20
2023-01-10T10:26:33.777Z,25.20
2023-01-10T10:29:39.194Z,25.20
2023-01-10T10:32:36.160Z,25.20
2023-01-10T10:35:16.468Z,25.20
2023-01-10T10:37:53.386Z,25.20
2023-01-10T10:40:29.666Z,25.20
2023-01-10T10:43:15.986Z,25.20
2023-01-10T10:45:53.483Z,25.20
2023-01-10T10:48:30.021Z,25.20
2023-01-10T10:51:09.848Z,25.20
2023-01-10T10:53:44.505Z,25.30
2023-01-10T10:56:22.142Z,25.20
2023-01-10T10:58:59.962Z,25.20
2023-01-10T11:01:33.577Z,25.20
2023-01-10T11:04:12.719Z,25.30
2023-01-10T11:06:49.258Z,25.30
2023-01-10T11:09:29.235Z,25.30
2023-01-10T11:12:04.837Z,25.30
2023-01-10T11:14:47.191Z,25.20
2023-01-10T11:17:25.658Z,25.30
2023-01-10T11:20:01.475Z,25.30
2023-01-10T11:22:39.448Z,25.30
2023-01-10T11:25:18.397Z,25.30
2023-01-10T11:27:54.131Z,25.30
2023-01-10T11:30:29.762Z,25.30
2023-01-10T11:33:05.589Z,25.30
2023-01-10T11:35:41.927Z,25.30
2023-01-10T11:38:24.546Z,25.30
2023-01-10T11:41:01.532Z,25.30
2023-01-10T11:43:36.881Z,25.30
2023-01-10T11:46:15.822Z,25.30
2023-01-10T11:49:06.325Z,25.30
2023-01-10T11:51:47.734Z,25.30
2023-01-10T11:54:24.596Z,25.30
2023-01-10T11:57:02.184Z,25.30
2023-01-10T11:59:35.526Z,25.30
2023-01-10T12:02:18.853Z,25.30
2023-01-10T12:04:53.765Z,25.30
2023-01-10T12:07:27.185Z,25.30
2023-01-10T12:10:02.724Z,25.30
2023-01-10T12:12:38.859Z,25.30
2023-01-10T12:15:24.282Z,25.30
2023-01-10T12:18:01.583Z,25.30
2023-01-10T12:20:42.995Z,25.30
2023-01-10T12:23:20.476Z,25.30
2023-01-10T12:26:07.152Z,25.30
2023-01-10T12:28:51.099Z,25.30
2023-01-10T12:31:24.899Z,25.30
2023-01-10T12:33:59.980Z,25.30
2023-01-10T12:36:40.515Z,25.30
2023-01-10T12:39:17.408Z,25.30
2023-01-10T12:42:20.748Z,25.30
2023-01-10T12:45:04.077Z,25.30
2023-01-10T12:47:49.700Z,25.30
2023-01-10T12:50:27.645Z,25.30
2023-01-10T12:53:06.203Z,25.30
2023-01-10T12:55:41.925Z,25.30
2023-01-10T12:58:21.957Z,25.30
2023-01-10T13:01:00.415Z,25.30
2023-01-10T13:03:35.892Z,25.30
2023-01-10T13:09:20.030Z,25.30
2023-01-10T13:12:00.833Z,25.30
2023-01-10T13:14:40.641Z,25.30
2023-01-10T13:17:27.474Z,25.30
2023-01-10T13:20:20.628Z,25.30
2023-01-10T13:22:55.960Z,25.30
2023-01-10T13:25:31.229Z,25.30
2023-01-10T13:28:06.944Z,25.30
2023-01-10T13:30:41.855Z,25.30
2023-01-10T13:33:23.419Z,25.40
2023-01-10T13:36:00.385Z,25.30
2023-01-10T13:38:39.944Z,25.40
2023-01-10T13:41:33.393Z,25.40
2023-01-10T13:44:11.342Z,25.40
2023-01-10T13:46:50.056Z,25.40
2023-01-10T13:49:44.572Z,25.40
2023-01-10T13:52:39.156Z,25.40
2023-01-10T13:55:25.443Z,25.40
2023-01-10T13:58:00.999Z,25.40
2023-01-10T14:01:06.383Z,25.40
2023-01-10T14:03:57.874Z,25.40
2023-01-10T14:06:44.488Z,25.40
2023-01-10T14:09:48.565Z,25.40
2023-01-10T14:12:28.195Z,25.40
2023-01-10T14:15:06.006Z,25.40
2023-01-10T14:17:40.375Z,25.40
2023-01-10T14:20:22.966Z,25.40
2023-01-10T14:23:08.764Z,25.40
2023-01-10T14:25:43.907Z,25.40
2023-01-10T14:28:24.582Z,25.40
2023-01-10T14:31:04.475Z,25.40
2023-01-10T14:33:42.830Z,25.40
2023-01-10T14:36:18.385Z,25.40
2023-01-10T14:38:58.253Z,25.40
2023-01-10T14:41:37.666Z,25.30
2023-01-10T14:44:17.105Z,25.40
2023-01-10T14:46:51.826Z,25.30
2023-01-10T14:49:28.406Z,25.30
2023-01-10T14:52:14.002Z,25.30
2023-01-10T14:54:49.570Z,25.30
2023-01-10T14:57:25.217Z,25.30
2023-01-10T15:00:10.599Z,25.30
2023-01-10T15:02:46.029Z,25.30
2023-01-10T15:05:21.493Z,25.30
2023-01-10T15:07:54.895Z,25.30
2023-01-10T15:10:32.738Z,25.30
2023-01-10T15:13:07.453Z,25.30
2023-01-10T15:15:43.593Z,25.30
2023-01-10T15:18:33.213Z,25.30
2023-01-10T15:21:07.370Z,25.30
2023-01-10T15:23:42.516Z,25.30
2023-01-10T15:26:19.086Z,25.40
2023-01-10T15:29:08.191Z,25.40
2023-01-10T15:31:42.509Z,25.40
2023-01-10T15:34:19.117Z,25.40
2023-01-10T15:36:55.688Z,25.40
2023-01-10T15:39:32.529Z,25.40
2023-01-10T15:42:09.816Z,25.40
2023-01-10T15:44:45.227Z,25.40
2023-01-10T15:47:40.495Z,25.40
2023-01-10T15:50:23.493Z,25.50
2023-01-10T15:52:58.842Z,25.50
2023-01-10T15:55:45.351Z,25.50
2023-01-10T15:58:28.323Z,25.50
2023-01-10T16:01:03.598Z,25.50
2023-01-10T16:03:39.631Z,25.50
2023-01-10T16:06:22.942Z,25.50
2023-01-10T16:08:58.318Z,25.50
2023-01-10T16:11:57.183Z,25.50
2023-01-10T16:14:33.513Z,25.50
2023-01-10T16:17:07.235Z,25.50
2023-01-10T16:19:40.660Z,25.50
2023-01-10T16:22:19.142Z,25.50
2023-01-10T16:24:52.899Z,25.50
2023-01-10T16:27:26.281Z,25.50
2023-01-10T16:30:00.939Z,25.50
2023-01-10T16:32:34.315Z,25.50
2023-01-10T16:35:08.534Z,25.50
2023-01-10T16:37:41.840Z,25.50
2023-01-10T16:40:20.903Z,25.50
2023-01-10T16:43:11.966Z,25.50
2023-01-10T16:45:47.048Z,25.50
2023-01-10T16:48:21.610Z,25.50
2023-01-10T16:50:55.294Z,25.50
2023-01-10T16:53:28.633Z,25.50
2023-01-10T16:56:01.980Z,25.50
2023-01-10T16:58:35.361Z,25.50
2023-01-10T17:01:14.482Z,25.50
2023-01-10T17:03:48.513Z,25.50
2023-01-10T17:06:21.948Z,25.50
2023-01-10T17:08:55.289Z,25.50
2023-01-10T17:11:31.013Z,25.50
2023-01-10T17:14:05.435Z,25.60
2023-01-10T17:16:40.219Z,25.60
2023-01-10T17:19:13.599Z,25.60
2023-01-10T17:21:47.126Z,25.60
2023-01-10T17:24:20.514Z,25.60
2023-01-10T17:26:53.901Z,25.50
2023-01-10T17:29:27.210Z,25.50
2023-01-10T17:32:02.205Z,25.60
2023-01-10T17:34:37.676Z,25.50
2023-01-10T17:37:11.418Z,25.50
2023-01-10T17:39:44.630Z,25.50
2023-01-10T17:42:18.999Z,25.50
2023-01-10T17:44:52.362Z,25.50
2023-01-10T17:47:27.404Z,25.50
2023-01-10T17:50:00.871Z,25.50
2023-01-10T17:52:34.262Z,25.50
2023-01-10T17:55:08.600Z,25.50
2023-01-10T17:57:41.972Z,25.50
2023-01-10T18:00:16.961Z,25.50
2023-01-10T18:02:51.796Z,25.50
2023-01-10T18:05:25.409Z,25.60
2023-01-10T18:08:01.255Z,25.60
2023-01-10T18:10:35.604Z,25.60
2023-01-10T18:13:12.057Z,25.60
2023-01-10T18:15:47.906Z,25.60
2023-01-10T18:18:24.918Z,25.60
2023-01-10T18:21:02.425Z,25.60
2023-01-10T18:23:36.049Z,25.60
2023-01-10T18:26:11.126Z,25.60
2023-01-10T18:28:45.607Z,25.60
2023-01-10T18:31:19.876Z,25.60
2023-01-10T18:33:56.376Z,25.60
2023-01-10T18:36:29.775Z,25.60
2023-01-10T18:39:03.777Z,25.60
2023-01-10T18:41:37.267Z,25.60
2023-01-10T18:44:10.632Z,25.60
2023-01-10T18:46:43.995Z,25.60
2023-01-10T18:49:18.702Z,25.70
2023-01-10T18:51:52.464Z,25.70
2023-01-10T18:54:27.988Z,25.70
2023-01-10T18:57:01.375Z,25.70
2023-01-10T18:59:35.225Z,25.70
2023-01-10T19:02:11.564Z,25.60
2023-01-10T19:04:46.383Z,25.70
2023-01-10T19:07:19.810Z,25.70
2023-01-10T19:09:53.484Z,25.70
2023-01-10T19:12:27.871Z,25.60
2023-01-10T19:15:01.504Z,25.60
2023-01-10T19:17:34.983Z,25.60
2023-01-10T19:20:11.501Z,25.60
2023-01-10T19:22:47.448Z,25.60
2023-01-10T19:25:21.233Z,25.60
2023-01-10T19:27:55.149Z,25.60
2023-01-10T19:30:28.900Z,25.60
2023-01-10T19:33:02.344Z,25.50
2023-01-10T19:35:41.722Z,25.50
2023-01-10T19:38:15.184Z,25.50
2023-01-10T19:40:53.028Z,25.50
2023-01-10T19:43:26.554Z,25.50
2023-01-10T19:45:59.967Z,25.50
2023-01-10T19:48:35.838Z,25.50
2023-01-10T19:51:12.599Z,25.50
2023-01-10T19:53:46.693Z,25.40
2023-01-10T19:56:22.833Z,25.50
2023-01-10T19:58:56.486Z,25.40
2023-01-10T20:01:32.519Z,25.40
2023-01-10T20:04:07.158Z,25.50
2023-01-10T20:06:42.975Z,25.40
2023-01-10T20:09:16.788Z,25.40
2023-01-10T20:11:49.951Z,25.50
2023-01-10T20:14:24.983Z,25.40
2023-01-10T20:16:58.409Z,25.40
2023-01-10T20:19:31.789Z,25.40
2023-01-10T20:22:06.758Z,25.40
2023-01-10T20:24:40.227Z,25.40
2023-01-10T20:27:13.548Z,25.40
2023-01-10T20:29:46.978Z,25.40
2023-01-10T20:32:20.607Z,25.40
2023-01-10T20:34:54.044Z,25.40
2023-01-10T20:37:28.816Z,25.40
2023-01-10T20:40:02.203Z,25.40
2023-01-10T20:42:35.614Z,25.40
2023-01-10T20:45:09.950Z,25.40
2023-01-10T20:47:43.306Z,25.40
2023-01-10T20:50:17.270Z,25.40
2023-01-10T20:52:52.073Z,25.40
2023-01-10T20:55:25.395Z,25.40
2023-01-10T20:57:58.740Z,25.40
2023-01-10T21:00:32.255Z,25.40
2023-01-10T21:03:06.341Z,25.40
2023-01-10T21:05:39.715Z,25.40
2023-01-10T21:08:14.524Z,25.40
2023-01-10T21:10:48.733Z,25.40
2023-01-10T21:13:22.299Z,25.40
2023-01-10T21:15:57.834Z,25.40
2023-01-10T21:18:33.572Z,25.40
2023-01-10T21:21:07.259Z,25.40
2023-01-10T21:23:42.705Z,25.40
2023-01-10T21:26:16.869Z,25.40
2023-01-10T21:28:50.233Z,25.40
2023-01-10T21:31:23.671Z,25.40
2023-01-10T21:33:57.028Z,25.40
2023-01-10T21:36:30.360Z,25.40
2023-01-10T21:39:05.215Z,25.40
2023-01-10T21:41:55.764Z,25.50
2023-01-10T21:44:29.124Z,25.40
2023-01-10T21:47:02.545Z,25.40
2023-01-10T21:49:35.955Z,25.40
2023-01-10T21:52:09.335Z,25.40
2023-01-10T21:54:44.044Z,25.40
2023-01-10T21:57:21.833Z,25.50
2023-01-10T21:59:55.409Z,25.50
2023-01-10T22:02:30.758Z,25.50
2023-01-10T22:05:04.392Z,25.50
2023-01-10T22:07:38.262Z,25.50
2023-01-10T22:10:13.663Z,25.50
2023-01-10T22:12:47.118Z,25.50
2023-01-10T22:15:20.781Z,25.50
2023-01-10T22:17:54.137Z,25.50
2023-01-10T22:20:27.559Z,25.50
2023-01-10T22:23:00.849Z,25.50
2023-01-10T22:25:35.638Z,25.50
2023-01-10T22:28:08.992Z,25.50
2023-01-10T22:30:42.327Z,25.50
2023-01-10T22:33:15.662Z,25.50
2023-01-10T22:35:49.025Z,25.50
2023-01-10T22:38:22.457Z,25.50
2023-01-10T22:40:57.229Z,25.50
2023-01-10T22:43:30.548Z,25.50
2023-01-10T22:46:04.218Z,25.50
2023-01-10T22:48:37.649Z,25.50
2023-01-10T22:51:11.004Z,25.50
2023-01-10T22:53:44.903Z,25.50
2023-01-10T22:56:19.619Z,25.50
2023-01-10T22:58:53.113Z,25.50
2023-01-10T23:01:26.754Z,25.50
2023-01-10T23:04:00.142Z,25.50
2023-01-10T23:06:33.544Z,25.50
2023-01-10T23:09:06.894Z,25.50
2023-01-10T23:11:41.597Z,25.50
2023-01-10T23:14:14.976Z,25.50
2023-01-10T23:16:48.564Z,25.50
2023-01-10T23:19:21.919Z,25.50
2023-01-10T23:21:55.287Z,25.50
2023-01-10T23:24:28.617Z,25.50
2023-01-10T23:27:03.356Z,25.50
2023-01-10T23:29:36.770Z,25.50
2023-01-10T23:32:10.305Z,25.50
2023-01-10T23:34:43.806Z,25.50
2023-01-10T23:37:17.307Z,25.50
2023-01-10T23:39:50.676Z,25.50
2023-01-10T23:42:25.511Z,25.50
2023-01-10T23:44:58.885Z,25.50
2023-01-10T23:47:32.278Z,25.50
2023-01-10T23:50:06.858Z,25.60
2023-01-10T23:52:40.228Z,25.60
2023-01-10T23:55:13.585Z,25.60
2023-01-10T23:57:48.409Z,25.60
